sensor_id;sensor_type;location;lat;lon;timestamp;P1;durP1;ratioP1;P2;durP2;ratioP2
7076;SDS011;3579;48.956;9.154;2022-07-22T00:00:05;2.70;;;2.50;;
7076;SDS011;3579;48.956;9.154;2022-07-22T00:02:35;3.00;;;2.73;;
7076;SDS011;3579;48.956;9.154;2022-07-22T00:05:01;2.83;;;2.63;;
7076;SDS011;3579;48.956;9.154;2022-07-22T00:07:27;2.67;;;2.40;;
7076;SDS011;3579;48.956;9.154;2022-07-22T00:09:53;3.63;;;2.70;;
7076;SDS011;3579;48.956;9.154;2022-07-22T00:12:19;3.57;;;2.77;;
7076;SDS011;3579;48.956;9.154;2022-07-22T00:14:45;4.20;;;2.63;;
7076;SDS011;3579;48.956;9.154;2022-07-22T00:17:11;2.70;;;2.50;;
7076;SDS011;3579;48.956;9.154;2022-07-22T00:19:38;3.20;;;2.60;;
7076;SDS011;3579;48.956;9.154;2022-07-22T00:22:04;2.90;;;2.60;;
7076;SDS011;3579;48.956;9.154;2022-07-22T00:24:30;3.00;;;2.70;;
7076;SDS011;3579;48.956;9.154;2022-07-22T00:26:56;2.60;;;2.30;;
7076;SDS011;3579;48.956;9.154;2022-07-22T00:29:22;3.50;;;2.70;;
7076;SDS011;3579;48.956;9.154;2022-07-22T00:31:48;2.60;;;2.40;;
7076;SDS011;3579;48.956;9.154;2022-07-22T00:34:14;2.83;;;2.60;;
7076;SDS011;3579;48.956;9.154;2022-07-22T00:36:40;2.60;;;2.40;;
7076;SDS011;3579;48.956;9.154;2022-07-22T00:39:06;3.20;;;2.60;;
7076;SDS011;3579;48.956;9.154;2022-07-22T00:41:32;3.37;;;2.40;;
7076;SDS011;3579;48.956;9.154;2022-07-22T00:43:59;3.00;;;2.80;;
7076;SDS011;3579;48.956;9.154;2022-07-22T00:46:27;2.70;;;2.30;;
7076;SDS011;3579;48.956;9.154;2022-07-22T00:48:56;2.63;;;2.43;;
7076;SDS011;3579;48.956;9.154;2022-07-22T00:51:23;2.57;;;2.30;;
7076;SDS011;3579;48.956;9.154;2022-07-22T00:53:51;3.07;;;2.73;;
7076;SDS011;3579;48.956;9.154;2022-07-22T00:56:19;2.60;;;2.40;;
7076;SDS011;3579;48.956;9.154;2022-07-22T00:58:46;5.23;;;2.77;;
7076;SDS011;3579;48.956;9.154;2022-07-22T01:01:14;2.60;;;2.40;;
7076;SDS011;3579;48.956;9.154;2022-07-22T01:03:40;2.60;;;2.40;;
7076;SDS011;3579;48.956;9.154;2022-07-22T01:06:06;3.20;;;2.60;;
7076;SDS011;3579;48.956;9.154;2022-07-22T01:08:33;2.83;;;2.50;;
7076;SDS011;3579;48.956;9.154;2022-07-22T01:11:12;2.73;;;2.53;;
7076;SDS011;3579;48.956;9.154;2022-07-22T01:13:40;3.03;;;2.50;;
7076;SDS011;3579;48.956;9.154;2022-07-22T01:16:07;3.20;;;2.60;;
7076;SDS011;3579;48.956;9.154;2022-07-22T01:18:35;2.53;;;2.33;;
7076;SDS011;3579;48.956;9.154;2022-07-22T01:21:02;2.40;;;2.20;;
7076;SDS011;3579;48.956;9.154;2022-07-22T01:23:29;2.70;;;2.50;;
7076;SDS011;3579;48.956;9.154;2022-07-22T01:25:56;3.03;;;2.57;;
7076;SDS011;3579;48.956;9.154;2022-07-22T01:28:22;2.60;;;2.40;;
7076;SDS011;3579;48.956;9.154;2022-07-22T01:30:49;2.50;;;2.30;;
7076;SDS011;3579;48.956;9.154;2022-07-22T01:33:19;2.70;;;2.33;;
7076;SDS011;3579;48.956;9.154;2022-07-22T01:35:46;2.60;;;2.40;;
7076;SDS011;3579;48.956;9.154;2022-07-22T01:38:13;2.57;;;2.37;;
7076;SDS011;3579;48.956;9.154;2022-07-22T01:40:39;2.53;;;2.33;;
7076;SDS011;3579;48.956;9.154;2022-07-22T01:43:07;2.80;;;2.30;;
7076;SDS011;3579;48.956;9.154;2022-07-22T01:45:33;2.43;;;2.17;;
7076;SDS011;3579;48.956;9.154;2022-07-22T01:48:00;2.80;;;2.60;;
7076;SDS011;3579;48.956;9.154;2022-07-22T01:50:27;2.70;;;2.50;;
7076;SDS011;3579;48.956;9.154;2022-07-22T01:52:53;2.67;;;2.47;;
7076;SDS011;3579;48.956;9.154;2022-07-22T01:55:19;2.60;;;2.40;;
7076;SDS011;3579;48.956;9.154;2022-07-22T01:57:46;3.03;;;2.33;;
7076;SDS011;3579;48.956;9.154;2022-07-22T02:00:12;2.50;;;2.30;;
7076;SDS011;3579;48.956;9.154;2022-07-22T02:02:39;4.57;;;2.33;;
7076;SDS011;3579;48.956;9.154;2022-07-22T02:05:05;2.60;;;2.40;;
7076;SDS011;3579;48.956;9.154;2022-07-22T02:07:31;2.43;;;2.23;;
7076;SDS011;3579;48.956;9.154;2022-07-22T02:09:58;2.37;;;2.17;;
7076;SDS011;3579;48.956;9.154;2022-07-22T02:12:24;2.43;;;2.23;;
7076;SDS011;3579;48.956;9.154;2022-07-22T02:14:50;2.70;;;2.40;;
7076;SDS011;3579;48.956;9.154;2022-07-22T02:17:16;2.60;;;2.40;;
7076;SDS011;3579;48.956;9.154;2022-07-22T02:19:43;2.20;;;2.00;;
7076;SDS011;3579;48.956;9.154;2022-07-22T02:22:09;2.50;;;2.30;;
7076;SDS011;3579;48.956;9.154;2022-07-22T02:24:35;2.87;;;2.40;;
7076;SDS011;3579;48.956;9.154;2022-07-22T02:27:01;2.50;;;2.30;;
7076;SDS011;3579;48.956;9.154;2022-07-22T02:29:27;2.63;;;2.10;;
7076;SDS011;3579;48.956;9.154;2022-07-22T02:31:53;2.60;;;2.40;;
7076;SDS011;3579;48.956;9.154;2022-07-22T02:34:19;2.40;;;2.20;;
7076;SDS011;3579;48.956;9.154;2022-07-22T02:36:45;2.50;;;2.30;;
7076;SDS011;3579;48.956;9.154;2022-07-22T02:39:12;2.60;;;2.40;;
7076;SDS011;3579;48.956;9.154;2022-07-22T02:41:38;2.57;;;2.37;;
7076;SDS011;3579;48.956;9.154;2022-07-22T02:44:04;2.30;;;2.10;;
7076;SDS011;3579;48.956;9.154;2022-07-22T02:46:30;2.70;;;2.50;;
7076;SDS011;3579;48.956;9.154;2022-07-22T02:48:57;2.47;;;2.27;;
7076;SDS011;3579;48.956;9.154;2022-07-22T02:51:23;2.50;;;2.30;;
7076;SDS011;3579;48.956;9.154;2022-07-22T02:53:49;2.30;;;2.10;;
7076;SDS011;3579;48.956;9.154;2022-07-22T02:56:16;2.50;;;2.30;;
7076;SDS011;3579;48.956;9.154;2022-07-22T02:58:42;2.60;;;2.00;;
7076;SDS011;3579;48.956;9.154;2022-07-22T03:01:08;2.67;;;2.10;;
7076;SDS011;3579;48.956;9.154;2022-07-22T03:03:34;2.30;;;2.10;;
7076;SDS011;3579;48.956;9.154;2022-07-22T03:06:00;2.20;;;2.00;;
7076;SDS011;3579;48.956;9.154;2022-07-22T03:08:27;2.30;;;2.10;;
7076;SDS011;3579;48.956;9.154;2022-07-22T03:10:53;3.77;;;2.43;;
7076;SDS011;3579;48.956;9.154;2022-07-22T03:13:19;2.20;;;2.00;;
7076;SDS011;3579;48.956;9.154;2022-07-22T03:15:45;2.40;;;2.20;;
7076;SDS011;3579;48.956;9.154;2022-07-22T03:18:11;2.60;;;2.40;;
7076;SDS011;3579;48.956;9.154;2022-07-22T03:20:37;2.80;;;2.50;;
7076;SDS011;3579;48.956;9.154;2022-07-22T03:23:03;2.23;;;2.10;;
7076;SDS011;3579;48.956;9.154;2022-07-22T03:25:29;2.43;;;2.23;;
7076;SDS011;3579;48.956;9.154;2022-07-22T03:27:56;2.60;;;2.40;;
7076;SDS011;3579;48.956;9.154;2022-07-22T03:30:23;2.47;;;2.27;;
7076;SDS011;3579;48.956;9.154;2022-07-22T03:32:49;2.43;;;2.23;;
7076;SDS011;3579;48.956;9.154;2022-07-22T03:35:15;2.40;;;2.13;;
7076;SDS011;3579;48.956;9.154;2022-07-22T03:37:42;2.53;;;2.33;;
7076;SDS011;3579;48.956;9.154;2022-07-22T03:40:09;2.13;;;1.93;;
7076;SDS011;3579;48.956;9.154;2022-07-22T03:42:35;2.50;;;2.30;;
7076;SDS011;3579;48.956;9.154;2022-07-22T03:45:02;1.90;;;1.80;;
7076;SDS011;3579;48.956;9.154;2022-07-22T03:47:28;2.60;;;2.40;;
7076;SDS011;3579;48.956;9.154;2022-07-22T03:49:54;2.20;;;2.00;;
7076;SDS011;3579;48.956;9.154;2022-07-22T03:52:22;2.17;;;1.97;;
7076;SDS011;3579;48.956;9.154;2022-07-22T03:54:48;2.33;;;2.13;;
7076;SDS011;3579;48.956;9.154;2022-07-22T03:57:14;2.73;;;2.47;;
7076;SDS011;3579;48.956;9.154;2022-07-22T03:59:40;3.50;;;2.30;;
7076;SDS011;3579;48.956;9.154;2022-07-22T04:02:06;2.47;;;2.27;;
7076;SDS011;3579;48.956;9.154;2022-07-22T04:04:32;2.30;;;2.10;;
7076;SDS011;3579;48.956;9.154;2022-07-22T04:06:58;2.27;;;2.07;;
7076;SDS011;3579;48.956;9.154;2022-07-22T04:09:24;2.37;;;2.00;;
7076;SDS011;3579;48.956;9.154;2022-07-22T04:11:50;2.20;;;2.00;;
7076;SDS011;3579;48.956;9.154;2022-07-22T04:14:17;2.60;;;2.30;;
7076;SDS011;3579;48.956;9.154;2022-07-22T04:16:43;2.17;;;1.97;;
7076;SDS011;3579;48.956;9.154;2022-07-22T04:19:09;2.83;;;2.20;;
7076;SDS011;3579;48.956;9.154;2022-07-22T04:21:36;2.30;;;2.10;;
7076;SDS011;3579;48.956;9.154;2022-07-22T04:24:02;2.33;;;2.13;;
7076;SDS011;3579;48.956;9.154;2022-07-22T04:26:29;2.30;;;2.10;;
7076;SDS011;3579;48.956;9.154;2022-07-22T04:28:55;3.43;;;2.50;;
7076;SDS011;3579;48.956;9.154;2022-07-22T04:31:21;2.20;;;2.00;;
7076;SDS011;3579;48.956;9.154;2022-07-22T04:33:47;2.50;;;2.30;;
7076;SDS011;3579;48.956;9.154;2022-07-22T04:36:13;2.40;;;2.20;;
7076;SDS011;3579;48.956;9.154;2022-07-22T04:38:39;2.33;;;2.13;;
7076;SDS011;3579;48.956;9.154;2022-07-22T04:41:05;2.40;;;2.20;;
7076;SDS011;3579;48.956;9.154;2022-07-22T04:43:32;2.70;;;2.33;;
7076;SDS011;3579;48.956;9.154;2022-07-22T04:45:58;2.43;;;2.23;;
7076;SDS011;3579;48.956;9.154;2022-07-22T04:48:24;2.50;;;2.30;;
7076;SDS011;3579;48.956;9.154;2022-07-22T04:50:50;2.57;;;2.37;;
7076;SDS011;3579;48.956;9.154;2022-07-22T04:53:16;2.17;;;1.97;;
7076;SDS011;3579;48.956;9.154;2022-07-22T04:55:42;2.37;;;2.17;;
7076;SDS011;3579;48.956;9.154;2022-07-22T04:58:08;2.37;;;2.17;;
7076;SDS011;3579;48.956;9.154;2022-07-22T05:00:34;2.10;;;1.90;;
7076;SDS011;3579;48.956;9.154;2022-07-22T05:03:00;2.30;;;2.10;;
7076;SDS011;3579;48.956;9.154;2022-07-22T05:05:27;2.30;;;2.10;;
7076;SDS011;3579;48.956;9.154;2022-07-22T05:07:53;6.73;;;4.90;;
7076;SDS011;3579;48.956;9.154;2022-07-22T05:10:19;9.40;;;6.80;;
7076;SDS011;3579;48.956;9.154;2022-07-22T05:12:45;9.00;;;7.20;;
7076;SDS011;3579;48.956;9.154;2022-07-22T05:15:11;7.17;;;6.47;;
7076;SDS011;3579;48.956;9.154;2022-07-22T05:17:37;9.53;;;8.07;;
7076;SDS011;3579;48.956;9.154;2022-07-22T05:20:04;9.87;;;8.43;;
7076;SDS011;3579;48.956;9.154;2022-07-22T05:22:30;9.53;;;7.70;;
7076;SDS011;3579;48.956;9.154;2022-07-22T05:24:57;10.83;;;7.67;;
7076;SDS011;3579;48.956;9.154;2022-07-22T05:27:23;9.90;;;7.43;;
7076;SDS011;3579;48.956;9.154;2022-07-22T05:29:49;9.97;;;6.90;;
7076;SDS011;3579;48.956;9.154;2022-07-22T05:32:15;9.63;;;7.37;;
7076;SDS011;3579;48.956;9.154;2022-07-22T05:34:41;8.87;;;7.80;;
7076;SDS011;3579;48.956;9.154;2022-07-22T05:37:07;8.63;;;7.43;;
7076;SDS011;3579;48.956;9.154;2022-07-22T05:39:33;11.63;;;6.90;;
7076;SDS011;3579;48.956;9.154;2022-07-22T05:41:59;8.93;;;7.67;;
7076;SDS011;3579;48.956;9.154;2022-07-22T05:44:25;12.73;;;7.60;;
7076;SDS011;3579;48.956;9.154;2022-07-22T05:46:51;8.40;;;7.50;;
7076;SDS011;3579;48.956;9.154;2022-07-22T05:49:17;9.13;;;6.90;;
7076;SDS011;3579;48.956;9.154;2022-07-22T05:51:43;9.97;;;8.17;;
7076;SDS011;3579;48.956;9.154;2022-07-22T05:54:09;8.87;;;7.33;;
7076;SDS011;3579;48.956;9.154;2022-07-22T05:56:35;10.80;;;7.30;;
7076;SDS011;3579;48.956;9.154;2022-07-22T05:59:02;10.40;;;7.63;;
7076;SDS011;3579;48.956;9.154;2022-07-22T06:01:28;8.63;;;7.30;;
7076;SDS011;3579;48.956;9.154;2022-07-22T06:03:54;8.60;;;6.67;;
7076;SDS011;3579;48.956;9.154;2022-07-22T06:06:20;10.37;;;7.83;;
7076;SDS011;3579;48.956;9.154;2022-07-22T06:08:46;8.57;;;7.67;;
7076;SDS011;3579;48.956;9.154;2022-07-22T06:11:12;9.97;;;7.40;;
7076;SDS011;3579;48.956;9.154;2022-07-22T06:13:38;10.50;;;7.43;;
7076;SDS011;3579;48.956;9.154;2022-07-22T06:16:04;10.73;;;7.23;;
7076;SDS011;3579;48.956;9.154;2022-07-22T06:18:30;9.80;;;7.63;;
7076;SDS011;3579;48.956;9.154;2022-07-22T06:20:56;8.50;;;7.43;;
7076;SDS011;3579;48.956;9.154;2022-07-22T06:23:23;11.07;;;7.20;;
7076;SDS011;3579;48.956;9.154;2022-07-22T06:25:49;10.93;;;7.30;;
7076;SDS011;3579;48.956;9.154;2022-07-22T06:28:15;11.87;;;7.03;;
7076;SDS011;3579;48.956;9.154;2022-07-22T06:30:41;10.10;;;7.10;;
7076;SDS011;3579;48.956;9.154;2022-07-22T06:33:08;12.40;;;6.87;;
7076;SDS011;3579;48.956;9.154;2022-07-22T06:35:34;10.40;;;7.00;;
7076;SDS011;3579;48.956;9.154;2022-07-22T06:38:03;8.43;;;7.10;;
7076;SDS011;3579;48.956;9.154;2022-07-22T06:40:29;8.67;;;7.10;;
7076;SDS011;3579;48.956;9.154;2022-07-22T06:42:55;9.60;;;7.70;;
7076;SDS011;3579;48.956;9.154;2022-07-22T06:45:21;8.90;;;7.90;;
7076;SDS011;3579;48.956;9.154;2022-07-22T06:47:47;8.73;;;6.30;;
7076;SDS011;3579;48.956;9.154;2022-07-22T06:50:14;6.97;;;6.00;;
7076;SDS011;3579;48.956;9.154;2022-07-22T06:52:40;11.83;;;8.33;;
7076;SDS011;3579;48.956;9.154;2022-07-22T06:55:08;10.93;;;8.73;;
7076;SDS011;3579;48.956;9.154;2022-07-22T06:57:35;12.43;;;7.37;;
7076;SDS011;3579;48.956;9.154;2022-07-22T07:00:02;11.63;;;7.20;;
7076;SDS011;3579;48.956;9.154;2022-07-22T07:02:29;10.53;;;6.70;;
7076;SDS011;3579;48.956;9.154;2022-07-22T07:04:55;9.50;;;6.80;;
7076;SDS011;3579;48.956;9.154;2022-07-22T07:07:21;9.37;;;6.70;;
7076;SDS011;3579;48.956;9.154;2022-07-22T07:09:48;9.97;;;7.33;;
7076;SDS011;3579;48.956;9.154;2022-07-22T07:12:14;8.97;;;7.67;;
7076;SDS011;3579;48.956;9.154;2022-07-22T07:14:40;10.97;;;7.40;;
7076;SDS011;3579;48.956;9.154;2022-07-22T07:17:07;9.17;;;6.70;;
7076;SDS011;3579;48.956;9.154;2022-07-22T07:19:33;10.83;;;6.50;;
7076;SDS011;3579;48.956;9.154;2022-07-22T07:21:59;9.43;;;6.37;;
7076;SDS011;3579;48.956;9.154;2022-07-22T07:24:26;11.60;;;6.60;;
7076;SDS011;3579;48.956;9.154;2022-07-22T07:26:52;11.20;;;6.83;;
7076;SDS011;3579;48.956;9.154;2022-07-22T07:29:18;11.37;;;6.73;;
7076;SDS011;3579;48.956;9.154;2022-07-22T07:31:44;12.77;;;6.70;;
7076;SDS011;3579;48.956;9.154;2022-07-22T07:34:11;9.20;;;6.47;;
7076;SDS011;3579;48.956;9.154;2022-07-22T07:36:37;9.10;;;6.97;;
7076;SDS011;3579;48.956;9.154;2022-07-22T07:39:03;8.20;;;6.93;;
7076;SDS011;3579;48.956;9.154;2022-07-22T07:41:29;8.33;;;6.23;;
7076;SDS011;3579;48.956;9.154;2022-07-22T07:43:55;9.37;;;6.50;;
7076;SDS011;3579;48.956;9.154;2022-07-22T07:46:21;8.23;;;6.50;;
7076;SDS011;3579;48.956;9.154;2022-07-22T07:48:47;9.67;;;6.47;;
7076;SDS011;3579;48.956;9.154;2022-07-22T07:51:14;13.83;;;6.67;;
7076;SDS011;3579;48.956;9.154;2022-07-22T07:53:40;9.43;;;6.90;;
7076;SDS011;3579;48.956;9.154;2022-07-22T07:56:07;9.30;;;6.57;;
7076;SDS011;3579;48.956;9.154;2022-07-22T07:58:33;9.77;;;6.33;;
7076;SDS011;3579;48.956;9.154;2022-07-22T08:00:59;14.73;;;7.40;;
7076;SDS011;3579;48.956;9.154;2022-07-22T08:03:25;8.73;;;6.30;;
7076;SDS011;3579;48.956;9.154;2022-07-22T08:05:52;8.00;;;6.50;;
7076;SDS011;3579;48.956;9.154;2022-07-22T08:08:18;12.17;;;6.80;;
7076;SDS011;3579;48.956;9.154;2022-07-22T08:10:44;8.53;;;7.17;;
7076;SDS011;3579;48.956;9.154;2022-07-22T08:13:10;8.27;;;6.60;;
7076;SDS011;3579;48.956;9.154;2022-07-22T08:15:37;8.57;;;6.10;;
7076;SDS011;3579;48.956;9.154;2022-07-22T08:18:03;9.20;;;6.57;;
7076;SDS011;3579;48.956;9.154;2022-07-22T08:20:30;7.40;;;5.93;;
7076;SDS011;3579;48.956;9.154;2022-07-22T08:22:56;8.73;;;6.63;;
7076;SDS011;3579;48.956;9.154;2022-07-22T08:25:22;8.73;;;5.97;;
7076;SDS011;3579;48.956;9.154;2022-07-22T08:27:48;7.97;;;6.10;;
7076;SDS011;3579;48.956;9.154;2022-07-22T08:30:15;7.90;;;5.90;;
7076;SDS011;3579;48.956;9.154;2022-07-22T08:32:42;7.80;;;6.20;;
7076;SDS011;3579;48.956;9.154;2022-07-22T08:35:09;8.67;;;6.30;;
7076;SDS011;3579;48.956;9.154;2022-07-22T08:37:36;7.47;;;6.40;;
7076;SDS011;3579;48.956;9.154;2022-07-22T08:40:03;8.57;;;6.70;;
7076;SDS011;3579;48.956;9.154;2022-07-22T08:42:30;9.60;;;6.63;;
7076;SDS011;3579;48.956;9.154;2022-07-22T08:44:56;6.53;;;5.93;;
7076;SDS011;3579;48.956;9.154;2022-07-22T08:47:23;6.97;;;6.27;;
7076;SDS011;3579;48.956;9.154;2022-07-22T08:49:50;8.80;;;5.73;;
7076;SDS011;3579;48.956;9.154;2022-07-22T08:52:16;8.97;;;6.07;;
7076;SDS011;3579;48.956;9.154;2022-07-22T08:54:42;9.30;;;5.80;;
7076;SDS011;3579;48.956;9.154;2022-07-22T08:57:09;7.90;;;5.80;;
7076;SDS011;3579;48.956;9.154;2022-07-22T08:59:48;9.50;;;6.37;;
7076;SDS011;3579;48.956;9.154;2022-07-22T09:02:15;7.73;;;6.00;;
7076;SDS011;3579;48.956;9.154;2022-07-22T09:04:53;9.73;;;6.07;;
7076;SDS011;3579;48.956;9.154;2022-07-22T09:07:29;7.77;;;5.40;;
7076;SDS011;3579;48.956;9.154;2022-07-22T09:09:57;5.73;;;5.20;;
7076;SDS011;3579;48.956;9.154;2022-07-22T09:12:25;8.43;;;5.50;;
7076;SDS011;3579;48.956;9.154;2022-07-22T09:14:56;6.23;;;5.63;;
7076;SDS011;3579;48.956;9.154;2022-07-22T09:17:29;7.10;;;5.60;;
7076;SDS011;3579;48.956;9.154;2022-07-22T09:20:14;6.10;;;5.50;;
7076;SDS011;3579;48.956;9.154;2022-07-22T09:22:44;8.00;;;5.57;;
7076;SDS011;3579;48.956;9.154;2022-07-22T09:25:27;6.30;;;5.03;;
7076;SDS011;3579;48.956;9.154;2022-07-22T09:28:09;7.17;;;5.57;;
7076;SDS011;3579;48.956;9.154;2022-07-22T09:30:39;9.57;;;5.83;;
7076;SDS011;3579;48.956;9.154;2022-07-22T09:33:10;9.57;;;5.97;;
7076;SDS011;3579;48.956;9.154;2022-07-22T09:35:37;6.97;;;6.30;;
7076;SDS011;3579;48.956;9.154;2022-07-22T09:38:06;7.07;;;6.37;;
7076;SDS011;3579;48.956;9.154;2022-07-22T09:40:34;8.37;;;6.63;;
7076;SDS011;3579;48.956;9.154;2022-07-22T09:43:03;8.70;;;6.40;;
7076;SDS011;3579;48.956;9.154;2022-07-22T09:45:46;7.47;;;5.70;;
7076;SDS011;3579;48.956;9.154;2022-07-22T09:48:21;8.17;;;5.90;;
7076;SDS011;3579;48.956;9.154;2022-07-22T09:50:47;9.00;;;6.10;;
7076;SDS011;3579;48.956;9.154;2022-07-22T09:53:16;10.40;;;6.80;;
7076;SDS011;3579;48.956;9.154;2022-07-22T09:55:46;8.77;;;6.23;;
7076;SDS011;3579;48.956;9.154;2022-07-22T09:58:12;10.10;;;6.23;;
7076;SDS011;3579;48.956;9.154;2022-07-22T10:00:39;8.13;;;6.53;;
7076;SDS011;3579;48.956;9.154;2022-07-22T10:03:08;10.77;;;6.37;;
7076;SDS011;3579;48.956;9.154;2022-07-22T10:05:40;7.90;;;6.40;;
7076;SDS011;3579;48.956;9.154;2022-07-22T10:08:08;7.47;;;6.00;;
7076;SDS011;3579;48.956;9.154;2022-07-22T10:10:35;8.57;;;6.07;;
7076;SDS011;3579;48.956;9.154;2022-07-22T10:13:04;10.23;;;6.10;;
7076;SDS011;3579;48.956;9.154;2022-07-22T10:15:34;7.53;;;6.70;;
7076;SDS011;3579;48.956;9.154;2022-07-22T10:18:07;7.67;;;6.30;;
7076;SDS011;3579;48.956;9.154;2022-07-22T10:20:40;7.03;;;5.67;;
7076;SDS011;3579;48.956;9.154;2022-07-22T10:23:07;8.33;;;6.03;;
7076;SDS011;3579;48.956;9.154;2022-07-22T10:26:08;7.37;;;5.67;;
7076;SDS011;3579;48.956;9.154;2022-07-22T10:28:32;9.00;;;5.90;;
7076;SDS011;3579;48.956;9.154;2022-07-22T10:33:41;7.67;;;5.63;;
7076;SDS011;3579;48.956;9.154;2022-07-22T10:36:10;8.87;;;5.67;;
7076;SDS011;3579;48.956;9.154;2022-07-22T10:38:36;7.30;;;6.00;;
7076;SDS011;3579;48.956;9.154;2022-07-22T10:41:03;5.93;;;5.10;;
7076;SDS011;3579;48.956;9.154;2022-07-22T10:43:45;7.40;;;5.53;;
7076;SDS011;3579;48.956;9.154;2022-07-22T10:46:13;7.53;;;5.23;;
7076;SDS011;3579;48.956;9.154;2022-07-22T10:53:43;7.50;;;5.53;;
7076;SDS011;3579;48.956;9.154;2022-07-22T10:56:29;7.43;;;5.63;;
7076;SDS011;3579;48.956;9.154;2022-07-22T11:01:46;5.80;;;5.20;;
7076;SDS011;3579;48.956;9.154;2022-07-22T11:04:22;8.00;;;5.10;;
7076;SDS011;3579;48.956;9.154;2022-07-22T11:06:53;7.37;;;5.43;;
7076;SDS011;3579;48.956;9.154;2022-07-22T11:09:21;6.20;;;5.37;;
7076;SDS011;3579;48.956;9.154;2022-07-22T11:11:53;6.63;;;5.50;;
7076;SDS011;3579;48.956;9.154;2022-07-22T11:17:05;7.00;;;5.17;;
7076;SDS011;3579;48.956;9.154;2022-07-22T11:19:39;5.90;;;5.30;;
7076;SDS011;3579;48.956;9.154;2022-07-22T11:22:06;6.73;;;5.50;;
7076;SDS011;3579;48.956;9.154;2022-07-22T11:24:37;5.87;;;4.63;;
7076;SDS011;3579;48.956;9.154;2022-07-22T11:27:08;6.93;;;5.07;;
7076;SDS011;3579;48.956;9.154;2022-07-22T11:29:47;5.93;;;5.33;;
7076;SDS011;3579;48.956;9.154;2022-07-22T11:32:15;5.80;;;5.20;;
7076;SDS011;3579;48.956;9.154;2022-07-22T11:34:42;7.83;;;5.20;;
7076;SDS011;3579;48.956;9.154;2022-07-22T11:37:19;5.67;;;4.73;;
7076;SDS011;3579;48.956;9.154;2022-07-22T11:39:51;7.30;;;5.50;;
7076;SDS011;3579;48.956;9.154;2022-07-22T11:42:39;5.53;;;5.00;;
7076;SDS011;3579;48.956;9.154;2022-07-22T11:45:05;7.00;;;5.10;;
7076;SDS011;3579;48.956;9.154;2022-07-22T11:47:31;5.60;;;5.10;;
7076;SDS011;3579;48.956;9.154;2022-07-22T11:49:58;5.80;;;5.20;;
7076;SDS011;3579;48.956;9.154;2022-07-22T11:52:24;5.80;;;5.20;;
7076;SDS011;3579;48.956;9.154;2022-07-22T11:54:50;5.83;;;5.30;;
7076;SDS011;3579;48.956;9.154;2022-07-22T11:57:16;5.90;;;5.40;;
7076;SDS011;3579;48.956;9.154;2022-07-22T11:59:43;7.13;;;5.10;;
7076;SDS011;3579;48.956;9.154;2022-07-22T12:02:09;6.83;;;5.33;;
7076;SDS011;3579;48.956;9.154;2022-07-22T12:04:38;6.70;;;5.13;;
7076;SDS011;3579;48.956;9.154;2022-07-22T12:07:05;8.33;;;5.70;;
7076;SDS011;3579;48.956;9.154;2022-07-22T12:09:34;8.27;;;6.27;;
7076;SDS011;3579;48.956;9.154;2022-07-22T12:12:02;5.90;;;5.03;;
7076;SDS011;3579;48.956;9.154;2022-07-22T12:14:32;6.20;;;5.60;;
7076;SDS011;3579;48.956;9.154;2022-07-22T12:17:00;6.20;;;5.60;;
7076;SDS011;3579;48.956;9.154;2022-07-22T12:19:32;6.47;;;5.70;;
7076;SDS011;3579;48.956;9.154;2022-07-22T12:22:07;6.40;;;5.50;;
7076;SDS011;3579;48.956;9.154;2022-07-22T12:24:35;7.20;;;5.33;;
7076;SDS011;3579;48.956;9.154;2022-07-22T12:27:10;6.53;;;5.53;;
7076;SDS011;3579;48.956;9.154;2022-07-22T12:32:08;6.50;;;5.50;;
7076;SDS011;3579;48.956;9.154;2022-07-22T12:37:25;5.87;;;5.23;;
7076;SDS011;3579;48.956;9.154;2022-07-22T12:39:54;6.30;;;5.20;;
7076;SDS011;3579;48.956;9.154;2022-07-22T12:42:21;6.17;;;5.57;;
7076;SDS011;3579;48.956;9.154;2022-07-22T12:47:47;8.73;;;5.70;;
7076;SDS011;3579;48.956;9.154;2022-07-22T12:50:56;6.57;;;5.97;;
7076;SDS011;3579;48.956;9.154;2022-07-22T12:55:33;6.97;;;5.50;;
7076;SDS011;3579;48.956;9.154;2022-07-22T12:58:02;5.93;;;4.87;;
7076;SDS011;3579;48.956;9.154;2022-07-22T13:00:31;6.07;;;5.23;;
7076;SDS011;3579;48.956;9.154;2022-07-22T13:03:02;7.43;;;5.57;;
7076;SDS011;3579;48.956;9.154;2022-07-22T13:05:29;7.07;;;5.53;;
7076;SDS011;3579;48.956;9.154;2022-07-22T13:07:55;5.83;;;5.33;;
7076;SDS011;3579;48.956;9.154;2022-07-22T13:10:22;5.80;;;5.17;;
7076;SDS011;3579;48.956;9.154;2022-07-22T13:12:49;8.53;;;5.93;;
7076;SDS011;3579;48.956;9.154;2022-07-22T13:15:16;7.27;;;5.13;;
7076;SDS011;3579;48.956;9.154;2022-07-22T13:17:43;6.73;;;5.30;;
7076;SDS011;3579;48.956;9.154;2022-07-22T13:20:10;6.40;;;5.00;;
7076;SDS011;3579;48.956;9.154;2022-07-22T13:22:38;6.37;;;5.50;;
7076;SDS011;3579;48.956;9.154;2022-07-22T13:25:05;6.23;;;4.93;;
7076;SDS011;3579;48.956;9.154;2022-07-22T13:27:32;5.60;;;5.10;;
7076;SDS011;3579;48.956;9.154;2022-07-22T13:29:59;8.07;;;5.37;;
7076;SDS011;3579;48.956;9.154;2022-07-22T13:32:25;5.70;;;5.07;;
7076;SDS011;3579;48.956;9.154;2022-07-22T13:34:51;6.20;;;5.13;;
7076;SDS011;3579;48.956;9.154;2022-07-22T13:37:17;5.70;;;5.00;;
7076;SDS011;3579;48.956;9.154;2022-07-22T13:39:43;7.03;;;5.00;;
7076;SDS011;3579;48.956;9.154;2022-07-22T13:42:11;5.40;;;4.90;;
7076;SDS011;3579;48.956;9.154;2022-07-22T13:44:38;5.83;;;5.23;;
7076;SDS011;3579;48.956;9.154;2022-07-22T13:47:04;5.83;;;5.20;;
7076;SDS011;3579;48.956;9.154;2022-07-22T13:49:30;7.00;;;5.20;;
7076;SDS011;3579;48.956;9.154;2022-07-22T13:51:56;5.87;;;5.30;;
7076;SDS011;3579;48.956;9.154;2022-07-22T13:54:23;5.93;;;5.33;;
7076;SDS011;3579;48.956;9.154;2022-07-22T13:56:49;6.97;;;5.30;;
7076;SDS011;3579;48.956;9.154;2022-07-22T13:59:16;8.80;;;5.23;;
7076;SDS011;3579;48.956;9.154;2022-07-22T14:01:42;5.20;;;4.70;;
7076;SDS011;3579;48.956;9.154;2022-07-22T14:04:08;7.37;;;5.00;;
7076;SDS011;3579;48.956;9.154;2022-07-22T14:06:34;6.57;;;5.13;;
7076;SDS011;3579;48.956;9.154;2022-07-22T14:09:01;6.00;;;5.33;;
7076;SDS011;3579;48.956;9.154;2022-07-22T14:11:29;6.93;;;5.20;;
7076;SDS011;3579;48.956;9.154;2022-07-22T14:13:55;5.27;;;4.77;;
7076;SDS011;3579;48.956;9.154;2022-07-22T14:16:21;6.30;;;4.80;;
7076;SDS011;3579;48.956;9.154;2022-07-22T14:18:59;6.33;;;5.13;;
7076;SDS011;3579;48.956;9.154;2022-07-22T14:21:27;5.90;;;4.77;;
7076;SDS011;3579;48.956;9.154;2022-07-22T14:23:53;6.13;;;4.83;;
7076;SDS011;3579;48.956;9.154;2022-07-22T14:26:19;5.97;;;5.13;;
7076;SDS011;3579;48.956;9.154;2022-07-22T14:28:45;5.00;;;4.50;;
7076;SDS011;3579;48.956;9.154;2022-07-22T14:31:11;7.10;;;4.93;;
7076;SDS011;3579;48.956;9.154;2022-07-22T14:33:37;5.00;;;4.40;;
7076;SDS011;3579;48.956;9.154;2022-07-22T14:36:04;5.93;;;5.07;;
7076;SDS011;3579;48.956;9.154;2022-07-22T14:38:30;6.20;;;4.73;;
7076;SDS011;3579;48.956;9.154;2022-07-22T14:40:56;5.47;;;4.70;;
7076;SDS011;3579;48.956;9.154;2022-07-22T14:43:22;5.50;;;5.00;;
7076;SDS011;3579;48.956;9.154;2022-07-22T14:45:48;8.07;;;4.63;;
7076;SDS011;3579;48.956;9.154;2022-07-22T14:48:14;6.93;;;4.93;;
7076;SDS011;3579;48.956;9.154;2022-07-22T14:50:40;6.43;;;4.77;;
7076;SDS011;3579;48.956;9.154;2022-07-22T14:53:06;5.87;;;4.80;;
7076;SDS011;3579;48.956;9.154;2022-07-22T14:55:32;6.37;;;4.83;;
7076;SDS011;3579;48.956;9.154;2022-07-22T14:57:58;5.20;;;4.70;;
7076;SDS011;3579;48.956;9.154;2022-07-22T15:00:24;6.60;;;4.83;;
7076;SDS011;3579;48.956;9.154;2022-07-22T15:02:50;4.97;;;4.47;;
7076;SDS011;3579;48.956;9.154;2022-07-22T15:05:16;5.70;;;4.90;;
7076;SDS011;3579;48.956;9.154;2022-07-22T15:07:42;6.93;;;4.60;;
7076;SDS011;3579;48.956;9.154;2022-07-22T15:10:08;5.13;;;4.63;;
7076;SDS011;3579;48.956;9.154;2022-07-22T15:12:35;5.93;;;4.70;;
7076;SDS011;3579;48.956;9.154;2022-07-22T15:15:02;5.47;;;4.70;;
7076;SDS011;3579;48.956;9.154;2022-07-22T15:17:33;6.23;;;5.00;;
7076;SDS011;3579;48.956;9.154;2022-07-22T15:20:00;5.20;;;4.70;;
7076;SDS011;3579;48.956;9.154;2022-07-22T15:22:26;5.47;;;4.87;;
7076;SDS011;3579;48.956;9.154;2022-07-22T15:24:53;4.80;;;4.33;;
7076;SDS011;3579;48.956;9.154;2022-07-22T15:27:19;5.50;;;4.43;;
7076;SDS011;3579;48.956;9.154;2022-07-22T15:29:45;5.40;;;4.90;;
7076;SDS011;3579;48.956;9.154;2022-07-22T15:32:13;5.10;;;4.57;;
7076;SDS011;3579;48.956;9.154;2022-07-22T15:34:40;5.27;;;4.40;;
7076;SDS011;3579;48.956;9.154;2022-07-22T15:37:06;4.87;;;4.37;;
7076;SDS011;3579;48.956;9.154;2022-07-22T15:39:32;7.37;;;5.07;;